sensor_id;sensor_type;location;lat;lon;timestamp;P1;durP1;ratioP1;P2;durP2;ratioP2
18296;SDS011;18066;52.106;5.534;2022-12-29T00:00:13;3.30;;;1.60;;
18296;SDS011;18066;52.106;5.534;2022-12-29T00:02:40;2.33;;;1.40;;
18296;SDS011;18066;52.106;5.534;2022-12-29T00:05:07;3.67;;;1.87;;
18296;SDS011;18066;52.106;5.534;2022-12-29T00:07:36;2.73;;;1.30;;
18296;SDS011;18066;52.106;5.534;2022-12-29T00:10:03;1.77;;;1.37;;
18296;SDS011;18066;52.106;5.534;2022-12-29T00:12:30;1.60;;;1.50;;
18296;SDS011;18066;52.106;5.534;2022-12-29T00:15:11;4.00;;;1.67;;
18296;SDS011;18066;52.106;5.534;2022-12-29T00:17:55;2.00;;;1.80;;
18296;SDS011;18066;52.106;5.534;2022-12-29T00:20:22;1.57;;;1.47;;
18296;SDS011;18066;52.106;5.534;2022-12-29T00:23:08;2.40;;;1.83;;
18296;SDS011;18066;52.106;5.534;2022-12-29T00:25:53;2.87;;;1.40;;
18296;SDS011;18066;52.106;5.534;2022-12-29T00:28:37;2.50;;;1.63;;
18296;SDS011;18066;52.106;5.534;2022-12-29T00:31:36;1.80;;;1.40;;
18296;SDS011;18066;52.106;5.534;2022-12-29T00:34:20;1.67;;;1.57;;
18296;SDS011;18066;52.106;5.534;2022-12-29T00:37:04;4.03;;;1.80;;
18296;SDS011;18066;52.106;5.534;2022-12-29T00:39:33;2.47;;;1.70;;
18296;SDS011;18066;52.106;5.534;2022-12-29T00:42:17;2.67;;;1.60;;
18296;SDS011;18066;52.106;5.534;2022-12-29T00:44:58;1.90;;;1.57;;
18296;SDS011;18066;52.106;5.534;2022-12-29T00:47:24;2.37;;;1.50;;
18296;SDS011;18066;52.106;5.534;2022-12-29T00:49:51;2.03;;;1.40;;
18296;SDS011;18066;52.106;5.534;2022-12-29T00:52:17;3.03;;;1.40;;
18296;SDS011;18066;52.106;5.534;2022-12-29T00:54:45;2.73;;;1.60;;
18296;SDS011;18066;52.106;5.534;2022-12-29T00:57:12;2.90;;;1.53;;
18296;SDS011;18066;52.106;5.534;2022-12-29T00:59:40;3.27;;;1.33;;
18296;SDS011;18066;52.106;5.534;2022-12-29T01:02:08;2.57;;;1.53;;
18296;SDS011;18066;52.106;5.534;2022-12-29T01:04:35;2.17;;;1.40;;
18296;SDS011;18066;52.106;5.534;2022-12-29T01:07:02;4.87;;;1.37;;
18296;SDS011;18066;52.106;5.534;2022-12-29T01:09:29;2.63;;;1.30;;
18296;SDS011;18066;52.106;5.534;2022-12-29T01:12:16;1.30;;;1.07;;
18296;SDS011;18066;52.106;5.534;2022-12-29T01:15:05;1.67;;;0.90;;
18296;SDS011;18066;52.106;5.534;2022-12-29T01:17:32;2.73;;;1.13;;
18296;SDS011;18066;52.106;5.534;2022-12-29T01:19:59;2.27;;;1.00;;
18296;SDS011;18066;52.106;5.534;2022-12-29T01:22:26;1.83;;;0.90;;
18296;SDS011;18066;52.106;5.534;2022-12-29T01:24:53;3.43;;;1.27;;
18296;SDS011;18066;52.106;5.534;2022-12-29T01:27:22;1.00;;;0.80;;
18296;SDS011;18066;52.106;5.534;2022-12-29T01:29:48;2.37;;;0.90;;
18296;SDS011;18066;52.106;5.534;2022-12-29T01:32:15;4.10;;;1.00;;
18296;SDS011;18066;52.106;5.534;2022-12-29T01:34:42;1.10;;;1.00;;
18296;SDS011;18066;52.106;5.534;2022-12-29T01:37:09;2.40;;;0.80;;
18296;SDS011;18066;52.106;5.534;2022-12-29T01:39:36;0.87;;;0.80;;
18296;SDS011;18066;52.106;5.534;2022-12-29T01:42:03;1.33;;;0.70;;
18296;SDS011;18066;52.106;5.534;2022-12-29T01:44:50;1.77;;;1.10;;
18296;SDS011;18066;52.106;5.534;2022-12-29T01:47:21;0.70;;;0.70;;
18296;SDS011;18066;52.106;5.534;2022-12-29T01:49:53;2.60;;;1.10;;
18296;SDS011;18066;52.106;5.534;2022-12-29T01:52:23;2.67;;;1.07;;
18296;SDS011;18066;52.106;5.534;2022-12-29T01:54:52;1.97;;;1.10;;
18296;SDS011;18066;52.106;5.534;2022-12-29T01:57:23;2.57;;;0.97;;
18296;SDS011;18066;52.106;5.534;2022-12-29T01:59:56;1.93;;;1.20;;
18296;SDS011;18066;52.106;5.534;2022-12-29T02:02:26;2.63;;;1.00;;
18296;SDS011;18066;52.106;5.534;2022-12-29T02:04:53;1.90;;;0.93;;
18296;SDS011;18066;52.106;5.534;2022-12-29T02:07:23;2.30;;;1.30;;
18296;SDS011;18066;52.106;5.534;2022-12-29T02:09:52;1.10;;;1.00;;
18296;SDS011;18066;52.106;5.534;2022-12-29T02:12:21;4.10;;;1.30;;
18296;SDS011;18066;52.106;5.534;2022-12-29T02:14:51;1.13;;;0.80;;
18296;SDS011;18066;52.106;5.534;2022-12-29T02:17:24;2.27;;;1.40;;
18296;SDS011;18066;52.106;5.534;2022-12-29T02:20:16;2.97;;;1.00;;
18296;SDS011;18066;52.106;5.534;2022-12-29T02:23:03;2.43;;;1.10;;
18296;SDS011;18066;52.106;5.534;2022-12-29T02:25:54;2.47;;;1.50;;
18296;SDS011;18066;52.106;5.534;2022-12-29T02:28:54;6.93;;;1.20;;
18296;SDS011;18066;52.106;5.534;2022-12-29T02:31:39;4.60;;;1.40;;
18296;SDS011;18066;52.106;5.534;2022-12-29T02:34:15;1.73;;;0.93;;
18296;SDS011;18066;52.106;5.534;2022-12-29T02:36:52;2.43;;;1.00;;
18296;SDS011;18066;52.106;5.534;2022-12-29T02:39:28;3.30;;;1.10;;
18296;SDS011;18066;52.106;5.534;2022-12-29T02:42:06;1.27;;;0.70;;
18296;SDS011;18066;52.106;5.534;2022-12-29T02:44:41;0.97;;;0.53;;
18296;SDS011;18066;52.106;5.534;2022-12-29T02:47:20;2.27;;;0.80;;
18296;SDS011;18066;52.106;5.534;2022-12-29T02:49:55;1.00;;;0.67;;
18296;SDS011;18066;52.106;5.534;2022-12-29T02:52:27;2.33;;;0.57;;
18296;SDS011;18066;52.106;5.534;2022-12-29T02:54:58;3.37;;;0.67;;
18296;SDS011;18066;52.106;5.534;2022-12-29T02:57:31;2.63;;;0.40;;
18296;SDS011;18066;52.106;5.534;2022-12-29T03:00:00;2.00;;;0.53;;
18296;SDS011;18066;52.106;5.534;2022-12-29T03:02:34;0.70;;;0.40;;
18296;SDS011;18066;52.106;5.534;2022-12-29T03:05:17;1.37;;;0.60;;
18296;SDS011;18066;52.106;5.534;2022-12-29T03:08:00;3.07;;;0.93;;
18296;SDS011;18066;52.106;5.534;2022-12-29T03:10:35;1.00;;;0.60;;
18296;SDS011;18066;52.106;5.534;2022-12-29T03:13:09;2.57;;;0.60;;
18296;SDS011;18066;52.106;5.534;2022-12-29T03:16:04;3.70;;;0.57;;
18296;SDS011;18066;52.106;5.534;2022-12-29T03:18:42;0.80;;;0.63;;
18296;SDS011;18066;52.106;5.534;2022-12-29T03:21:14;0.93;;;0.50;;
18296;SDS011;18066;52.106;5.534;2022-12-29T03:24:10;1.45;;;0.70;;
18296;SDS011;18066;52.106;5.534;2022-12-29T03:26:38;1.97;;;0.80;;
18296;SDS011;18066;52.106;5.534;2022-12-29T03:29:07;1.43;;;0.70;;
18296;SDS011;18066;52.106;5.534;2022-12-29T03:31:35;1.57;;;0.80;;
18296;SDS011;18066;52.106;5.534;2022-12-29T03:34:04;1.70;;;0.60;;
18296;SDS011;18066;52.106;5.534;2022-12-29T03:36:34;2.10;;;0.80;;
18296;SDS011;18066;52.106;5.534;2022-12-29T03:39:07;3.50;;;1.10;;
18296;SDS011;18066;52.106;5.534;2022-12-29T03:41:37;1.73;;;0.77;;
18296;SDS011;18066;52.106;5.534;2022-12-29T03:44:06;1.33;;;0.50;;
18296;SDS011;18066;52.106;5.534;2022-12-29T03:46:33;0.90;;;0.60;;
18296;SDS011;18066;52.106;5.534;2022-12-29T03:49:00;3.37;;;0.80;;
18296;SDS011;18066;52.106;5.534;2022-12-29T03:51:28;4.10;;;0.80;;
18296;SDS011;18066;52.106;5.534;2022-12-29T03:53:55;0.50;;;0.50;;
18296;SDS011;18066;52.106;5.534;2022-12-29T03:56:22;3.00;;;0.70;;
18296;SDS011;18066;52.106;5.534;2022-12-29T03:58:49;0.77;;;0.63;;
18296;SDS011;18066;52.106;5.534;2022-12-29T04:01:15;3.83;;;0.50;;
18296;SDS011;18066;52.106;5.534;2022-12-29T04:03:42;3.37;;;0.80;;
18296;SDS011;18066;52.106;5.534;2022-12-29T04:06:09;2.50;;;0.80;;
18296;SDS011;18066;52.106;5.534;2022-12-29T04:08:37;1.90;;;0.70;;
18296;SDS011;18066;52.106;5.534;2022-12-29T04:11:04;2.57;;;0.70;;
18296;SDS011;18066;52.106;5.534;2022-12-29T04:13:31;1.60;;;0.80;;
18296;SDS011;18066;52.106;5.534;2022-12-29T04:15:58;5.00;;;0.80;;
18296;SDS011;18066;52.106;5.534;2022-12-29T04:18:25;1.20;;;0.80;;
18296;SDS011;18066;52.106;5.534;2022-12-29T04:20:51;2.63;;;0.90;;
18296;SDS011;18066;52.106;5.534;2022-12-29T04:23:28;3.30;;;0.90;;
18296;SDS011;18066;52.106;5.534;2022-12-29T04:25:58;3.90;;;0.60;;
18296;SDS011;18066;52.106;5.534;2022-12-29T04:28:25;4.40;;;1.40;;
18296;SDS011;18066;52.106;5.534;2022-12-29T04:30:52;4.40;;;0.90;;
18296;SDS011;18066;52.106;5.534;2022-12-29T04:33:19;6.47;;;1.30;;
18296;SDS011;18066;52.106;5.534;2022-12-29T04:35:47;5.40;;;1.10;;
18296;SDS011;18066;52.106;5.534;2022-12-29T04:38:14;6.50;;;1.20;;
18296;SDS011;18066;52.106;5.534;2022-12-29T04:40:42;4.87;;;1.10;;
18296;SDS011;18066;52.106;5.534;2022-12-29T04:43:11;1.67;;;0.80;;
18296;SDS011;18066;52.106;5.534;2022-12-29T04:45:38;5.60;;;1.37;;
18296;SDS011;18066;52.106;5.534;2022-12-29T04:48:05;3.40;;;0.90;;
18296;SDS011;18066;52.106;5.534;2022-12-29T04:50:32;5.40;;;1.00;;
18296;SDS011;18066;52.106;5.534;2022-12-29T04:52:59;6.77;;;1.47;;
18296;SDS011;18066;52.106;5.534;2022-12-29T04:55:26;7.70;;;1.50;;
18296;SDS011;18066;52.106;5.534;2022-12-29T04:57:53;7.67;;;1.30;;
18296;SDS011;18066;52.106;5.534;2022-12-29T05:00:21;5.50;;;1.10;;
18296;SDS011;18066;52.106;5.534;2022-12-29T05:02:48;11.17;;;1.33;;
18296;SDS011;18066;52.106;5.534;2022-12-29T05:05:15;6.30;;;1.00;;
18296;SDS011;18066;52.106;5.534;2022-12-29T05:07:42;3.30;;;1.00;;
18296;SDS011;18066;52.106;5.534;2022-12-29T05:10:09;6.03;;;1.10;;
18296;SDS011;18066;52.106;5.534;2022-12-29T05:12:36;4.03;;;1.10;;
18296;SDS011;18066;52.106;5.534;2022-12-29T05:15:04;5.03;;;0.93;;
18296;SDS011;18066;52.106;5.534;2022-12-29T05:17:34;6.47;;;1.10;;
18296;SDS011;18066;52.106;5.534;2022-12-29T05:20:01;8.67;;;1.53;;
18296;SDS011;18066;52.106;5.534;2022-12-29T05:22:27;6.33;;;1.17;;
18296;SDS011;18066;52.106;5.534;2022-12-29T05:24:54;7.47;;;1.97;;
18296;SDS011;18066;52.106;5.534;2022-12-29T05:27:21;7.50;;;1.40;;
18296;SDS011;18066;52.106;5.534;2022-12-29T05:29:48;6.93;;;1.13;;
18296;SDS011;18066;52.106;5.534;2022-12-29T05:32:15;3.67;;;1.17;;
18296;SDS011;18066;52.106;5.534;2022-12-29T05:34:43;10.77;;;1.40;;
18296;SDS011;18066;52.106;5.534;2022-12-29T05:37:10;5.77;;;1.13;;
18296;SDS011;18066;52.106;5.534;2022-12-29T05:39:37;4.37;;;0.97;;
18296;SDS011;18066;52.106;5.534;2022-12-29T05:42:04;8.10;;;1.43;;
18296;SDS011;18066;52.106;5.534;2022-12-29T05:44:30;8.73;;;1.23;;
18296;SDS011;18066;52.106;5.534;2022-12-29T05:46:57;5.07;;;1.13;;
18296;SDS011;18066;52.106;5.534;2022-12-29T05:49:24;4.90;;;1.00;;
18296;SDS011;18066;52.106;5.534;2022-12-29T05:51:52;7.00;;;0.97;;
18296;SDS011;18066;52.106;5.534;2022-12-29T05:54:19;8.10;;;1.40;;
18296;SDS011;18066;52.106;5.534;2022-12-29T05:56:46;7.53;;;1.23;;
18296;SDS011;18066;52.106;5.534;2022-12-29T05:59:13;11.37;;;1.83;;
18296;SDS011;18066;52.106;5.534;2022-12-29T06:01:39;8.83;;;1.57;;
18296;SDS011;18066;52.106;5.534;2022-12-29T06:04:06;6.23;;;1.27;;
18296;SDS011;18066;52.106;5.534;2022-12-29T06:06:33;8.47;;;1.10;;
18296;SDS011;18066;52.106;5.534;2022-12-29T06:09:01;5.53;;;1.23;;
18296;SDS011;18066;52.106;5.534;2022-12-29T06:11:28;9.27;;;1.07;;
18296;SDS011;18066;52.106;5.534;2022-12-29T06:13:55;4.97;;;0.97;;
18296;SDS011;18066;52.106;5.534;2022-12-29T06:16:22;6.43;;;1.30;;
18296;SDS011;18066;52.106;5.534;2022-12-29T06:18:49;12.20;;;1.60;;
18296;SDS011;18066;52.106;5.534;2022-12-29T06:21:15;4.60;;;1.03;;
18296;SDS011;18066;52.106;5.534;2022-12-29T06:23:42;5.60;;;1.30;;
18296;SDS011;18066;52.106;5.534;2022-12-29T06:26:10;6.43;;;1.30;;
18296;SDS011;18066;52.106;5.534;2022-12-29T06:28:37;3.47;;;1.10;;
18296;SDS011;18066;52.106;5.534;2022-12-29T06:31:04;5.13;;;1.20;;
18296;SDS011;18066;52.106;5.534;2022-12-29T06:33:31;7.77;;;1.40;;
18296;SDS011;18066;52.106;5.534;2022-12-29T06:35:57;7.30;;;1.43;;
18296;SDS011;18066;52.106;5.534;2022-12-29T06:38:24;8.90;;;1.57;;
18296;SDS011;18066;52.106;5.534;2022-12-29T06:40:51;10.97;;;1.97;;
18296;SDS011;18066;52.106;5.534;2022-12-29T06:43:19;9.00;;;1.23;;
18296;SDS011;18066;52.106;5.534;2022-12-29T06:45:46;10.63;;;1.40;;
18296;SDS011;18066;52.106;5.534;2022-12-29T06:48:13;11.60;;;1.33;;
18296;SDS011;18066;52.106;5.534;2022-12-29T06:50:39;5.20;;;1.33;;
18296;SDS011;18066;52.106;5.534;2022-12-29T06:53:07;6.93;;;1.20;;
18296;SDS011;18066;52.106;5.534;2022-12-29T06:55:33;11.03;;;1.10;;
18296;SDS011;18066;52.106;5.534;2022-12-29T06:58:00;8.20;;;1.50;;
18296;SDS011;18066;52.106;5.534;2022-12-29T07:00:28;6.43;;;1.00;;
18296;SDS011;18066;52.106;5.534;2022-12-29T07:02:55;8.07;;;1.43;;
18296;SDS011;18066;52.106;5.534;2022-12-29T07:05:23;4.97;;;1.30;;
18296;SDS011;18066;52.106;5.534;2022-12-29T07:07:52;7.37;;;1.50;;
18296;SDS011;18066;52.106;5.534;2022-12-29T07:10:19;10.63;;;1.73;;
18296;SDS011;18066;52.106;5.534;2022-12-29T07:12:46;6.90;;;1.17;;
18296;SDS011;18066;52.106;5.534;2022-12-29T07:15:13;5.87;;;0.97;;
18296;SDS011;18066;52.106;5.534;2022-12-29T07:17:41;11.73;;;1.77;;
18296;SDS011;18066;52.106;5.534;2022-12-29T07:20:09;6.23;;;1.37;;
18296;SDS011;18066;52.106;5.534;2022-12-29T07:22:36;8.53;;;1.47;;
18296;SDS011;18066;52.106;5.534;2022-12-29T07:25:03;8.97;;;1.10;;
18296;SDS011;18066;52.106;5.534;2022-12-29T07:27:31;9.63;;;1.60;;
18296;SDS011;18066;52.106;5.534;2022-12-29T07:29:58;3.77;;;1.20;;
18296;SDS011;18066;52.106;5.534;2022-12-29T07:32:24;12.93;;;1.60;;
18296;SDS011;18066;52.106;5.534;2022-12-29T07:34:53;10.23;;;1.40;;
18296;SDS011;18066;52.106;5.534;2022-12-29T07:37:19;6.83;;;1.37;;
18296;SDS011;18066;52.106;5.534;2022-12-29T07:39:46;6.27;;;1.23;;
18296;SDS011;18066;52.106;5.534;2022-12-29T07:42:13;3.67;;;1.27;;
18296;SDS011;18066;52.106;5.534;2022-12-29T07:44:40;8.90;;;1.47;;
18296;SDS011;18066;52.106;5.534;2022-12-29T07:47:07;9.90;;;1.30;;
18296;SDS011;18066;52.106;5.534;2022-12-29T07:49:34;9.83;;;1.40;;
18296;SDS011;18066;52.106;5.534;2022-12-29T07:52:02;5.47;;;1.33;;
18296;SDS011;18066;52.106;5.534;2022-12-29T07:54:29;4.53;;;0.90;;
18296;SDS011;18066;52.106;5.534;2022-12-29T07:56:56;9.73;;;1.60;;
18296;SDS011;18066;52.106;5.534;2022-12-29T07:59:28;6.57;;;1.10;;
18296;SDS011;18066;52.106;5.534;2022-12-29T08:01:55;11.30;;;1.50;;
18296;SDS011;18066;52.106;5.534;2022-12-29T08:04:22;13.20;;;1.60;;
18296;SDS011;18066;52.106;5.534;2022-12-29T08:06:49;11.83;;;2.20;;
18296;SDS011;18066;52.106;5.534;2022-12-29T08:09:17;10.93;;;1.80;;
18296;SDS011;18066;52.106;5.534;2022-12-29T08:11:44;8.10;;;1.30;;
18296;SDS011;18066;52.106;5.534;2022-12-29T08:14:11;13.03;;;1.50;;
18296;SDS011;18066;52.106;5.534;2022-12-29T08:16:38;8.17;;;1.57;;
18296;SDS011;18066;52.106;5.534;2022-12-29T08:19:05;8.07;;;1.67;;
18296;SDS011;18066;52.106;5.534;2022-12-29T08:21:31;8.17;;;1.17;;
18296;SDS011;18066;52.106;5.534;2022-12-29T08:23:58;9.00;;;1.73;;
18296;SDS011;18066;52.106;5.534;2022-12-29T08:26:27;10.17;;;1.97;;
18296;SDS011;18066;52.106;5.534;2022-12-29T08:28:54;8.80;;;2.07;;
18296;SDS011;18066;52.106;5.534;2022-12-29T08:31:21;10.27;;;1.90;;
18296;SDS011;18066;52.106;5.534;2022-12-29T08:33:48;7.43;;;1.47;;
18296;SDS011;18066;52.106;5.534;2022-12-29T08:36:16;9.07;;;1.57;;
18296;SDS011;18066;52.106;5.534;2022-12-29T08:38:43;11.67;;;2.00;;
18296;SDS011;18066;52.106;5.534;2022-12-29T08:41:10;8.03;;;1.40;;
18296;SDS011;18066;52.106;5.534;2022-12-29T08:43:38;8.93;;;1.50;;
18296;SDS011;18066;52.106;5.534;2022-12-29T08:46:05;11.17;;;1.77;;
18296;SDS011;18066;52.106;5.534;2022-12-29T08:48:32;7.10;;;1.20;;
18296;SDS011;18066;52.106;5.534;2022-12-29T08:50:58;6.00;;;1.30;;
18296;SDS011;18066;52.106;5.534;2022-12-29T08:53:25;6.30;;;1.37;;
18296;SDS011;18066;52.106;5.534;2022-12-29T08:55:55;10.43;;;1.73;;
18296;SDS011;18066;52.106;5.534;2022-12-29T08:58:22;5.90;;;1.57;;
18296;SDS011;18066;52.106;5.534;2022-12-29T09:00:51;7.77;;;1.40;;
18296;SDS011;18066;52.106;5.534;2022-12-29T09:03:18;8.83;;;1.50;;
18296;SDS011;18066;52.106;5.534;2022-12-29T09:05:47;8.07;;;1.43;;
18296;SDS011;18066;52.106;5.534;2022-12-29T09:08:14;10.93;;;1.50;;
18296;SDS011;18066;52.106;5.534;2022-12-29T09:10:41;7.47;;;1.40;;
18296;SDS011;18066;52.106;5.534;2022-12-29T09:13:08;4.43;;;1.00;;
18296;SDS011;18066;52.106;5.534;2022-12-29T09:15:35;5.43;;;1.20;;
18296;SDS011;18066;52.106;5.534;2022-12-29T09:18:04;9.20;;;1.33;;
18296;SDS011;18066;52.106;5.534;2022-12-29T09:20:31;7.53;;;1.40;;
18296;SDS011;18066;52.106;5.534;2022-12-29T09:22:58;8.10;;;1.37;;
18296;SDS011;18066;52.106;5.534;2022-12-29T09:25:24;11.03;;;1.90;;
18296;SDS011;18066;52.106;5.534;2022-12-29T09:27:51;10.03;;;1.70;;
18296;SDS011;18066;52.106;5.534;2022-12-29T09:30:20;11.27;;;1.50;;
18296;SDS011;18066;52.106;5.534;2022-12-29T09:32:49;6.80;;;1.60;;
18296;SDS011;18066;52.106;5.534;2022-12-29T09:35:17;9.57;;;1.97;;
18296;SDS011;18066;52.106;5.534;2022-12-29T09:37:44;9.30;;;1.63;;
18296;SDS011;18066;52.106;5.534;2022-12-29T09:40:17;6.23;;;1.53;;
18296;SDS011;18066;52.106;5.534;2022-12-29T09:42:53;9.17;;;1.23;;
18296;SDS011;18066;52.106;5.534;2022-12-29T09:45:32;6.50;;;1.23;;
18296;SDS011;18066;52.106;5.534;2022-12-29T09:48:03;5.73;;;1.23;;
18296;SDS011;18066;52.106;5.534;2022-12-29T09:50:32;9.93;;;1.40;;
18296;SDS011;18066;52.106;5.534;2022-12-29T09:53:05;3.87;;;1.17;;
18296;SDS011;18066;52.106;5.534;2022-12-29T09:55:38;6.20;;;1.63;;
18296;SDS011;18066;52.106;5.534;2022-12-29T09:58:10;10.40;;;1.20;;
18296;SDS011;18066;52.106;5.534;2022-12-29T10:00:47;7.77;;;1.23;;
18296;SDS011;18066;52.106;5.534;2022-12-29T10:03:16;6.93;;;1.30;;
18296;SDS011;18066;52.106;5.534;2022-12-29T10:05:48;9.93;;;1.83;;
18296;SDS011;18066;52.106;5.534;2022-12-29T10:08:23;10.73;;;1.70;;
18296;SDS011;18066;52.106;5.534;2022-12-29T10:10:56;5.97;;;1.87;;
18296;SDS011;18066;52.106;5.534;2022-12-29T10:13:33;6.60;;;1.50;;
18296;SDS011;18066;52.106;5.534;2022-12-29T10:16:09;7.33;;;1.37;;
18296;SDS011;18066;52.106;5.534;2022-12-29T10:18:52;11.23;;;1.50;;
18296;SDS011;18066;52.106;5.534;2022-12-29T10:21:36;4.23;;;1.00;;
18296;SDS011;18066;52.106;5.534;2022-12-29T10:24:12;8.60;;;1.30;;
18296;SDS011;18066;52.106;5.534;2022-12-29T10:26:40;7.03;;;1.40;;
18296;SDS011;18066;52.106;5.534;2022-12-29T10:29:12;12.67;;;1.87;;
18296;SDS011;18066;52.106;5.534;2022-12-29T10:31:43;12.27;;;1.40;;
18296;SDS011;18066;52.106;5.534;2022-12-29T10:34:14;4.73;;;1.10;;
18296;SDS011;18066;52.106;5.534;2022-12-29T10:36:48;3.30;;;1.03;;
18296;SDS011;18066;52.106;5.534;2022-12-29T10:39:19;6.20;;;1.40;;
18296;SDS011;18066;52.106;5.534;2022-12-29T10:41:53;5.83;;;1.40;;
18296;SDS011;18066;52.106;5.534;2022-12-29T10:44:24;7.63;;;1.37;;
18296;SDS011;18066;52.106;5.534;2022-12-29T10:46:57;10.60;;;1.50;;
18296;SDS011;18066;52.106;5.534;2022-12-29T10:49:29;8.00;;;1.50;;
18296;SDS011;18066;52.106;5.534;2022-12-29T10:52:00;8.80;;;2.00;;
18296;SDS011;18066;52.106;5.534;2022-12-29T10:54:29;5.37;;;1.60;;
18296;SDS011;18066;52.106;5.534;2022-12-29T10:57:03;5.80;;;1.40;;
18296;SDS011;18066;52.106;5.534;2022-12-29T10:59:36;12.77;;;2.33;;
18296;SDS011;18066;52.106;5.534;2022-12-29T11:02:11;7.33;;;1.80;;
18296;SDS011;18066;52.106;5.534;2022-12-29T11:04:51;14.57;;;2.30;;
18296;SDS011;18066;52.106;5.534;2022-12-29T11:07:29;11.47;;;2.07;;
18296;SDS011;18066;52.106;5.534;2022-12-29T11:10:06;12.77;;;2.53;;
18296;SDS011;18066;52.106;5.534;2022-12-29T11:12:46;12.00;;;2.80;;
18296;SDS011;18066;52.106;5.534;2022-12-29T11:15:21;10.33;;;2.20;;
18296;SDS011;18066;52.106;5.534;2022-12-29T11:17:51;13.10;;;2.60;;
18296;SDS011;18066;52.106;5.534;2022-12-29T11:20:27;14.20;;;2.40;;
18296;SDS011;18066;52.106;5.534;2022-12-29T11:22:57;15.23;;;2.73;;
18296;SDS011;18066;52.106;5.534;2022-12-29T11:25:24;14.77;;;2.20;;
18296;SDS011;18066;52.106;5.534;2022-12-29T11:27:54;13.67;;;2.50;;
18296;SDS011;18066;52.106;5.534;2022-12-29T11:30:23;9.93;;;2.50;;
18296;SDS011;18066;52.106;5.534;2022-12-29T11:32:53;20.33;;;4.13;;
18296;SDS011;18066;52.106;5.534;2022-12-29T11:35:30;15.00;;;2.70;;
18296;SDS011;18066;52.106;5.534;2022-12-29T11:38:06;13.37;;;2.53;;
18296;SDS011;18066;52.106;5.534;2022-12-29T11:40:45;8.63;;;2.27;;
18296;SDS011;18066;52.106;5.534;2022-12-29T11:43:16;9.80;;;2.37;;
18296;SDS011;18066;52.106;5.534;2022-12-29T11:45:47;9.53;;;2.70;;
18296;SDS011;18066;52.106;5.534;2022-12-29T11:48:16;14.23;;;2.30;;
18296;SDS011;18066;52.106;5.534;2022-12-29T11:50:48;9.47;;;2.23;;
18296;SDS011;18066;52.106;5.534;2022-12-29T11:53:20;10.77;;;2.20;;
18296;SDS011;18066;52.106;5.534;2022-12-29T11:55:50;16.77;;;2.73;;
18296;SDS011;18066;52.106;5.534;2022-12-29T11:58:18;10.13;;;2.13;;
18296;SDS011;18066;52.106;5.534;2022-12-29T12:00:45;8.00;;;1.97;;
18296;SDS011;18066;52.106;5.534;2022-12-29T12:03:16;9.90;;;1.70;;
18296;SDS011;18066;52.106;5.534;2022-12-29T12:05:46;9.93;;;2.00;;
18296;SDS011;18066;52.106;5.534;2022-12-29T12:08:20;7.97;;;1.77;;
18296;SDS011;18066;52.106;5.534;2022-12-29T12:10:55;9.37;;;1.57;;
18296;SDS011;18066;52.106;5.534;2022-12-29T12:13:29;9.73;;;1.77;;
18296;SDS011;18066;52.106;5.534;2022-12-29T12:16:02;15.47;;;2.27;;
18296;SDS011;18066;52.106;5.534;2022-12-29T12:18:40;9.47;;;2.07;;
18296;SDS011;18066;52.106;5.534;2022-12-29T12:21:12;11.03;;;1.80;;
18296;SDS011;18066;52.106;5.534;2022-12-29T12:23:47;12.03;;;2.47;;
18296;SDS011;18066;52.106;5.534;2022-12-29T12:26:28;8.67;;;1.90;;
18296;SDS011;18066;52.106;5.534;2022-12-29T12:29:01;13.47;;;2.93;;
18296;SDS011;18066;52.106;5.534;2022-12-29T12:31:39;12.87;;;2.20;;
18296;SDS011;18066;52.106;5.534;2022-12-29T12:34:13;14.80;;;2.70;;
18296;SDS011;18066;52.106;5.534;2022-12-29T12:36:51;18.23;;;3.30;;
18296;SDS011;18066;52.106;5.534;2022-12-29T12:39:44;14.60;;;2.97;;
18296;SDS011;18066;52.106;5.534;2022-12-29T12:42:25;15.90;;;3.03;;
18296;SDS011;18066;52.106;5.534;2022-12-29T12:45:17;9.03;;;2.77;;
18296;SDS011;18066;52.106;5.534;2022-12-29T12:48:00;13.23;;;2.57;;
18296;SDS011;18066;52.106;5.534;2022-12-29T12:50:41;18.10;;;2.57;;
18296;SDS011;18066;52.106;5.534;2022-12-29T12:53:25;13.50;;;2.50;;
18296;SDS011;18066;52.106;5.534;2022-12-29T12:56:15;9.50;;;2.47;;
18296;SDS011;18066;52.106;5.534;2022-12-29T12:58:59;10.27;;;2.30;;
18296;SDS011;18066;52.106;5.534;2022-12-29T13:01:36;11.80;;;2.03;;
18296;SDS011;18066;52.106;5.534;2022-12-29T13:04:15;15.87;;;3.17;;
18296;SDS011;18066;52.106;5.534;2022-12-29T13:07:04;16.73;;;3.27;;
18296;SDS011;18066;52.106;5.534;2022-12-29T13:09:53;19.60;;;2.83;;
18296;SDS011;18066;52.106;5.534;2022-12-29T13:12:46;17.83;;;2.93;;
18296;SDS011;18066;52.106;5.534;2022-12-29T13:15:20;19.13;;;2.70;;
18296;SDS011;18066;52.106;5.534;2022-12-29T13:17:59;19.63;;;3.20;;
18296;SDS011;18066;52.106;5.534;2022-12-29T13:20:33;17.20;;;3.10;;
18296;SDS011;18066;52.106;5.534;2022-12-29T13:23:08;15.73;;;2.33;;
18296;SDS011;18066;52.106;5.534;2022-12-29T13:25:43;12.50;;;2.53;;
18296;SDS011;18066;52.106;5.534;2022-12-29T13:28:19;11.07;;;2.63;;
18296;SDS011;18066;52.106;5.534;2022-12-29T13:30:53;11.53;;;2.43;;
18296;SDS011;18066;52.106;5.534;2022-12-29T13:33:27;18.10;;;4.03;;
18296;SDS011;18066;52.106;5.534;2022-12-29T13:36:00;14.60;;;2.20;;
18296;SDS011;18066;52.106;5.534;2022-12-29T13:38:32;11.03;;;2.80;;
18296;SDS011;18066;52.106;5.534;2022-12-29T13:41:03;10.33;;;2.77;;
18296;SDS011;18066;52.106;5.534;2022-12-29T13:43:35;7.37;;;2.63;;
18296;SDS011;18066;52.106;5.534;2022-12-29T13:46:07;16.73;;;2.80;;
18296;SDS011;18066;52.106;5.534;2022-12-29T13:48:38;10.23;;;2.57;;
18296;SDS011;18066;52.106;5.534;2022-12-29T13:51:09;14.13;;;2.57;;
18296;SDS011;18066;52.106;5.534;2022-12-29T13:53:41;20.33;;;3.33;;
18296;SDS011;18066;52.106;5.534;2022-12-29T13:56:22;11.37;;;2.83;;
18296;SDS011;18066;52.106;5.534;2022-12-29T13:58:58;10.00;;;2.60;;
18296;SDS011;18066;52.106;5.534;2022-12-29T14:01:33;13.03;;;2.90;;
18296;SDS011;18066;52.106;5.534;2022-12-29T14:04:08;14.50;;;2.77;;
18296;SDS011;18066;52.106;5.534;2022-12-29T14:06:39;10.47;;;3.37;;
18296;SDS011;18066;52.106;5.534;2022-12-29T14:12:08;9.77;;;2.03;;
18296;SDS011;18066;52.106;5.534;2022-12-29T14:14:48;11.90;;;2.60;;
18296;SDS011;18066;52.106;5.534;2022-12-29T14:17:17;8.90;;;1.90;;
18296;SDS011;18066;52.106;5.534;2022-12-29T14:19:47;8.63;;;1.87;;
18296;SDS011;18066;52.106;5.534;2022-12-29T14:22:22;11.30;;;2.60;;
18296;SDS011;18066;52.106;5.534;2022-12-29T14:24:50;8.17;;;1.73;;
18296;SDS011;18066;52.106;5.534;2022-12-29T14:33:20;5.83;;;1.10;;
18296;SDS011;18066;52.106;5.534;2022-12-29T14:35:49;2.33;;;0.80;;
18296;SDS011;18066;52.106;5.534;2022-12-29T14:38:18;1.90;;;0.80;;
18296;SDS011;18066;52.106;5.534;2022-12-29T14:40:48;3.80;;;0.80;;
18296;SDS011;18066;52.106;5.534;2022-12-29T14:43:25;2.00;;;0.63;;
18296;SDS011;18066;52.106;5.534;2022-12-29T14:45:54;1.60;;;0.70;;
18296;SDS011;18066;52.106;5.534;2022-12-29T14:48:38;2.67;;;0.57;;
18296;SDS011;18066;52.106;5.534;2022-12-29T14:57:04;5.23;;;1.10;;
18296;SDS011;18066;52.106;5.534;2022-12-29T14:59:33;7.53;;;1.37;;
18296;SDS011;18066;52.106;5.534;2022-12-29T15:02:03;6.13;;;1.07;;
18296;SDS011;18066;52.106;5.534;2022-12-29T15:04:38;2.97;;;1.10;;
18296;SDS011;18066;52.106;5.534;2022-12-29T15:07:06;5.07;;;1.20;;
18296;SDS011;18066;52.106;5.534;2022-12-29T15:09:36;6.47;;;1.30;;
18296;SDS011;18066;52.106;5.534;2022-12-29T15:12:12;6.60;;;1.40;;
18296;SDS011;18066;52.106;5.534;2022-12-29T15:14:49;10.17;;;2.73;;
18296;SDS011;18066;52.106;5.534;2022-12-29T15:17:23;9.27;;;2.17;;
18296;SDS011;18066;52.106;5.534;2022-12-29T15:19:53;7.27;;;2.10;;
18296;SDS011;18066;52.106;5.534;2022-12-29T15:22:20;7.03;;;2.00;;
18296;SDS011;18066;52.106;5.534;2022-12-29T15:24:49;8.83;;;1.70;;